sensor_id;sensor_type;location;lat;lon;timestamp;temperature;humidity
4699;DHT22;33708;49.466;11.176;2023-04-25T00:01:11;8.90;1.00
4699;DHT22;33708;49.466;11.176;2023-04-25T00:03:38;9.00;1.00
4699;DHT22;33708;49.466;11.176;2023-04-25T00:06:04;9.00;1.00
4699;DHT22;33708;49.466;11.176;2023-04-25T00:08:30;9.00;1.00
4699;DHT22;33708;49.466;11.176;2023-04-25T00:10:57;9.10;1.00
4699;DHT22;33708;49.466;11.176;2023-04-25T00:13:23;9.20;1.00
4699;DHT22;33708;49.466;11.176;2023-04-25T00:15:48;9.10;1.00
4699;DHT22;33708;49.466;11.176;2023-04-25T00:18:14;9.30;1.00
4699;DHT22;33708;49.466;11.176;2023-04-25T00:20:40;9.20;1.00
4699;DHT22;33708;49.466;11.176;2023-04-25T00:23:09;9.20;1.00
4699;DHT22;33708;49.466;11.176;2023-04-25T00:25:35;9.30;1.00
4699;DHT22;33708;49.466;11.176;2023-04-25T00:28:01;9.40;1.00
4699;DHT22;33708;49.466;11.176;2023-04-25T00:30:26;9.40;1.00
4699;DHT22;33708;49.466;11.176;2023-04-25T00:32:52;9.50;1.00
4699;DHT22;33708;49.466;11.176;2023-04-25T00:35:18;9.50;1.00
4699;DHT22;33708;49.466;11.176;2023-04-25T00:37:44;9.60;1.00
4699;DHT22;33708;49.466;11.176;2023-04-25T00:40:10;9.60;1.00
4699;DHT22;33708;49.466;11.176;2023-04-25T00:42:36;9.60;1.00
4699;DHT22;33708;49.466;11.176;2023-04-25T00:45:05;9.60;1.00
4699;DHT22;33708;49.466;11.176;2023-04-25T00:47:31;9.70;1.00
4699;DHT22;33708;49.466;11.176;2023-04-25T00:49:58;9.60;1.00
4699;DHT22;33708;49.466;11.176;2023-04-25T00:52:23;9.70;1.00
4699;DHT22;33708;49.466;11.176;2023-04-25T00:54:49;9.70;1.00
4699;DHT22;33708;49.466;11.176;2023-04-25T00:57:15;9.60;1.00
4699;DHT22;33708;49.466;11.176;2023-04-25T00:59:43;9.70;1.00
4699;DHT22;33708;49.466;11.176;2023-04-25T01:02:10;9.60;1.00
4699;DHT22;33708;49.466;11.176;2023-04-25T01:04:36;9.60;1.00
4699;DHT22;33708;49.466;11.176;2023-04-25T01:07:02;9.50;1.00
4699;DHT22;33708;49.466;11.176;2023-04-25T01:09:30;9.50;1.00
4699;DHT22;33708;49.466;11.176;2023-04-25T01:11:56;9.30;1.00
4699;DHT22;33708;49.466;11.176;2023-04-25T01:14:23;9.50;1.00
4699;DHT22;33708;49.466;11.176;2023-04-25T01:16:48;9.40;1.00
4699;DHT22;33708;49.466;11.176;2023-04-25T01:19:16;9.40;1.00
4699;DHT22;33708;49.466;11.176;2023-04-25T01:21:42;9.30;1.00
4699;DHT22;33708;49.466;11.176;2023-04-25T01:24:08;9.40;1.00
4699;DHT22;33708;49.466;11.176;2023-04-25T01:26:35;9.30;1.00
4699;DHT22;33708;49.466;11.176;2023-04-25T01:29:01;9.30;1.00
4699;DHT22;33708;49.466;11.176;2023-04-25T01:31:27;9.10;1.00
4699;DHT22;33708;49.466;11.176;2023-04-25T01:33:53;9.10;1.00
4699;DHT22;33708;49.466;11.176;2023-04-25T01:36:19;9.00;1.00
4699;DHT22;33708;49.466;11.176;2023-04-25T01:38:45;9.10;1.00
4699;DHT22;33708;49.466;11.176;2023-04-25T01:41:13;9.00;1.00
4699;DHT22;33708;49.466;11.176;2023-04-25T01:43:39;9.10;1.00
4699;DHT22;33708;49.466;11.176;2023-04-25T01:46:05;9.10;1.00
4699;DHT22;33708;49.466;11.176;2023-04-25T01:48:31;9.10;1.00
4699;DHT22;33708;49.466;11.176;2023-04-25T01:50:57;9.10;1.00
4699;DHT22;33708;49.466;11.176;2023-04-25T01:53:23;9.30;1.00
4699;DHT22;33708;49.466;11.176;2023-04-25T01:55:49;9.00;1.00
4699;DHT22;33708;49.466;11.176;2023-04-25T01:58:15;9.10;1.00
4699;DHT22;33708;49.466;11.176;2023-04-25T02:00:40;9.10;1.00
4699;DHT22;33708;49.466;11.176;2023-04-25T02:03:06;9.20;1.00
4699;DHT22;33708;49.466;11.176;2023-04-25T02:05:36;9.10;1.00
4699;DHT22;33708;49.466;11.176;2023-04-25T02:08:07;9.10;1.00
4699;DHT22;33708;49.466;11.176;2023-04-25T02:10:33;9.10;1.00
4699;DHT22;33708;49.466;11.176;2023-04-25T02:12:59;9.20;1.00
4699;DHT22;33708;49.466;11.176;2023-04-25T02:15:25;9.30;1.00
4699;DHT22;33708;49.466;11.176;2023-04-25T02:17:51;9.30;1.00
4699;DHT22;33708;49.466;11.176;2023-04-25T02:20:19;9.30;1.00
4699;DHT22;33708;49.466;11.176;2023-04-25T02:22:45;9.30;1.00
4699;DHT22;33708;49.466;11.176;2023-04-25T02:25:11;9.10;1.00
4699;DHT22;33708;49.466;11.176;2023-04-25T02:27:37;9.10;1.00
4699;DHT22;33708;49.466;11.176;2023-04-25T02:30:04;9.10;1.00
4699;DHT22;33708;49.466;11.176;2023-04-25T02:32:30;9.10;1.00
4699;DHT22;33708;49.466;11.176;2023-04-25T02:34:56;8.80;1.00
4699;DHT22;33708;49.466;11.176;2023-04-25T02:37:24;8.90;1.00
4699;DHT22;33708;49.466;11.176;2023-04-25T02:39:49;9.00;1.00
4699;DHT22;33708;49.466;11.176;2023-04-25T02:42:15;9.70;1.00
4699;DHT22;33708;49.466;11.176;2023-04-25T02:44:41;8.70;1.00
4699;DHT22;33708;49.466;11.176;2023-04-25T02:47:06;8.70;1.00
4699;DHT22;33708;49.466;11.176;2023-04-25T02:49:32;8.60;1.00
4699;DHT22;33708;49.466;11.176;2023-04-25T02:51:58;8.50;1.00
4699;DHT22;33708;49.466;11.176;2023-04-25T02:54:23;8.60;1.00
4699;DHT22;33708;49.466;11.176;2023-04-25T02:56:49;8.50;1.00
4699;DHT22;33708;49.466;11.176;2023-04-25T02:59:15;8.50;1.00
4699;DHT22;33708;49.466;11.176;2023-04-25T03:01:40;8.60;1.00
4699;DHT22;33708;49.466;11.176;2023-04-25T03:04:06;8.70;1.00
4699;DHT22;33708;49.466;11.176;2023-04-25T03:06:32;8.70;53.00
4699;DHT22;33708;49.466;11.176;2023-04-25T03:08:57;8.70;1.00
4699;DHT22;33708;49.466;11.176;2023-04-25T03:11:25;8.70;1.00
4699;DHT22;33708;49.466;11.176;2023-04-25T03:13:50;8.60;1.00
4699;DHT22;33708;49.466;11.176;2023-04-25T03:16:16;8.60;1.00
4699;DHT22;33708;49.466;11.176;2023-04-25T03:18:42;8.60;1.00
4699;DHT22;33708;49.466;11.176;2023-04-25T03:21:07;8.60;1.00
4699;DHT22;33708;49.466;11.176;2023-04-25T03:23:33;8.60;1.00
4699;DHT22;33708;49.466;11.176;2023-04-25T03:25:59;8.70;1.00
4699;DHT22;33708;49.466;11.176;2023-04-25T03:28:24;8.60;1.00
4699;DHT22;33708;49.466;11.176;2023-04-25T03:30:50;8.60;1.00
4699;DHT22;33708;49.466;11.176;2023-04-25T03:33:16;8.50;1.00
4699;DHT22;33708;49.466;11.176;2023-04-25T03:35:42;8.50;1.00
4699;DHT22;33708;49.466;11.176;2023-04-25T03:38:08;8.40;1.00
4699;DHT22;33708;49.466;11.176;2023-04-25T03:40:33;8.30;1.00
4699;DHT22;33708;49.466;11.176;2023-04-25T03:42:59;8.10;1.00
4699;DHT22;33708;49.466;11.176;2023-04-25T03:45:25;8.20;1.00
4699;DHT22;33708;49.466;11.176;2023-04-25T03:47:50;8.20;1.00
4699;DHT22;33708;49.466;11.176;2023-04-25T03:50:16;8.20;1.00
4699;DHT22;33708;49.466;11.176;2023-04-25T03:52:42;8.10;1.00
4699;DHT22;33708;49.466;11.176;2023-04-25T03:55:09;8.00;1.00
4699;DHT22;33708;49.466;11.176;2023-04-25T03:57:35;8.00;1.00
4699;DHT22;33708;49.466;11.176;2023-04-25T04:00:00;7.90;1.00
4699;DHT22;33708;49.466;11.176;2023-04-25T04:02:26;8.00;1.00
4699;DHT22;33708;49.466;11.176;2023-04-25T04:04:52;8.20;1.00
4699;DHT22;33708;49.466;11.176;2023-04-25T04:07:17;8.40;1.00
4699;DHT22;33708;49.466;11.176;2023-04-25T04:09:43;8.40;1.00
4699;DHT22;33708;49.466;11.176;2023-04-25T04:12:08;8.60;1.00
4699;DHT22;33708;49.466;11.176;2023-04-25T04:14:34;8.70;1.00
4699;DHT22;33708;49.466;11.176;2023-04-25T04:17:00;8.70;1.00
4699;DHT22;33708;49.466;11.176;2023-04-25T04:19:26;8.80;1.00
4699;DHT22;33708;49.466;11.176;2023-04-25T04:21:51;9.00;1.00
4699;DHT22;33708;49.466;11.176;2023-04-25T04:24:17;9.00;1.00
4699;DHT22;33708;49.466;11.176;2023-04-25T04:26:43;9.00;1.00
4699;DHT22;33708;49.466;11.176;2023-04-25T04:29:10;9.10;1.00
4699;DHT22;33708;49.466;11.176;2023-04-25T04:31:36;9.00;1.00
4699;DHT22;33708;49.466;11.176;2023-04-25T04:34:02;9.10;1.00
4699;DHT22;33708;49.466;11.176;2023-04-25T04:36:29;9.10;1.00
4699;DHT22;33708;49.466;11.176;2023-04-25T04:38:55;9.10;1.00
4699;DHT22;33708;49.466;11.176;2023-04-25T04:41:22;8.90;1.00
4699;DHT22;33708;49.466;11.176;2023-04-25T04:43:47;9.00;1.00
4699;DHT22;33708;49.466;11.176;2023-04-25T04:46:13;9.10;1.00
4699;DHT22;33708;49.466;11.176;2023-04-25T04:48:39;9.00;1.00
4699;DHT22;33708;49.466;11.176;2023-04-25T04:51:05;9.00;1.00
4699;DHT22;33708;49.466;11.176;2023-04-25T04:53:31;9.10;1.00
4699;DHT22;33708;49.466;11.176;2023-04-25T04:55:57;9.10;1.00
4699;DHT22;33708;49.466;11.176;2023-04-25T04:58:23;9.20;1.00
4699;DHT22;33708;49.466;11.176;2023-04-25T05:00:49;9.10;1.00
4699;DHT22;33708;49.466;11.176;2023-04-25T05:03:15;9.20;1.00
4699;DHT22;33708;49.466;11.176;2023-04-25T05:05:41;9.10;1.00
4699;DHT22;33708;49.466;11.176;2023-04-25T05:08:07;9.10;1.00
4699;DHT22;33708;49.466;11.176;2023-04-25T05:10:32;9.20;1.00
4699;DHT22;33708;49.466;11.176;2023-04-25T05:12:58;9.20;1.00
4699;DHT22;33708;49.466;11.176;2023-04-25T05:15:24;9.10;1.00
4699;DHT22;33708;49.466;11.176;2023-04-25T05:17:49;9.10;1.00
4699;DHT22;33708;49.466;11.176;2023-04-25T05:20:15;9.10;1.00
4699;DHT22;33708;49.466;11.176;2023-04-25T05:22:41;9.10;1.00
4699;DHT22;33708;49.466;11.176;2023-04-25T05:25:08;9.20;1.00
4699;DHT22;33708;49.466;11.176;2023-04-25T05:27:33;9.50;99.90
4699;DHT22;33708;49.466;11.176;2023-04-25T05:29:59;9.60;99.90
4699;DHT22;33708;49.466;11.176;2023-04-25T05:32:25;9.60;99.90
4699;DHT22;33708;49.466;11.176;2023-04-25T05:34:51;9.80;99.90
4699;DHT22;33708;49.466;11.176;2023-04-25T05:37:17;9.70;99.90
4699;DHT22;33708;49.466;11.176;2023-04-25T05:39:43;9.90;99.90
4699;DHT22;33708;49.466;11.176;2023-04-25T05:42:08;9.90;57.90
4699;DHT22;33708;49.466;11.176;2023-04-25T05:44:34;9.70;33.60
4699;DHT22;33708;49.466;11.176;2023-04-25T05:46:59;9.70;18.60
4699;DHT22;33708;49.466;11.176;2023-04-25T05:49:25;9.70;8.90
4699;DHT22;33708;49.466;11.176;2023-04-25T05:51:51;9.70;6.00
4699;DHT22;33708;49.466;11.176;2023-04-25T05:54:16;9.70;2.40
4699;DHT22;33708;49.466;11.176;2023-04-25T05:56:42;10.00;1.00
4699;DHT22;33708;49.466;11.176;2023-04-25T05:59:08;10.00;1.00
4699;DHT22;33708;49.466;11.176;2023-04-25T06:01:33;9.90;1.00
4699;DHT22;33708;49.466;11.176;2023-04-25T06:03:59;10.20;1.00
4699;DHT22;33708;49.466;11.176;2023-04-25T06:06:25;10.10;1.00
4699;DHT22;33708;49.466;11.176;2023-04-25T06:08:52;10.10;1.00
4699;DHT22;33708;49.466;11.176;2023-04-25T06:11:17;10.10;1.00
4699;DHT22;33708;49.466;11.176;2023-04-25T06:13:43;9.80;1.00
4699;DHT22;33708;49.466;11.176;2023-04-25T06:16:08;9.90;1.00
4699;DHT22;33708;49.466;11.176;2023-04-25T06:18:34;9.90;1.00
4699;DHT22;33708;49.466;11.176;2023-04-25T06:21:00;10.10;1.00
4699;DHT22;33708;49.466;11.176;2023-04-25T06:23:25;10.10;1.00
4699;DHT22;33708;49.466;11.176;2023-04-25T06:25:51;10.20;1.00
4699;DHT22;33708;49.466;11.176;2023-04-25T06:28:17;10.30;1.00
4699;DHT22;33708;49.466;11.176;2023-04-25T06:30:42;10.20;99.90
4699;DHT22;33708;49.466;11.176;2023-04-25T06:33:08;10.40;1.00
4699;DHT22;33708;49.466;11.176;2023-04-25T06:35:34;10.50;1.00
4699;DHT22;33708;49.466;11.176;2023-04-25T06:38:00;10.50;1.00
4699;DHT22;33708;49.466;11.176;2023-04-25T06:40:25;10.60;1.00
4699;DHT22;33708;49.466;11.176;2023-04-25T06:42:51;10.70;1.00
4699;DHT22;33708;49.466;11.176;2023-04-25T06:45:17;11.00;1.00
4699;DHT22;33708;49.466;11.176;2023-04-25T06:47:44;10.90;34.00
4699;DHT22;33708;49.466;11.176;2023-04-25T06:50:10;10.60;1.00
4699;DHT22;33708;49.466;11.176;2023-04-25T06:52:36;10.70;1.00
4699;DHT22;33708;49.466;11.176;2023-04-25T06:55:01;10.70;1.00
4699;DHT22;33708;49.466;11.176;2023-04-25T06:57:28;10.70;1.00
4699;DHT22;33708;49.466;11.176;2023-04-25T06:59:53;10.90;1.00
4699;DHT22;33708;49.466;11.176;2023-04-25T07:02:19;10.60;1.00
4699;DHT22;33708;49.466;11.176;2023-04-25T07:04:46;11.30;1.00
4699;DHT22;33708;49.466;11.176;2023-04-25T07:07:12;12.00;1.00
4699;DHT22;33708;49.466;11.176;2023-04-25T07:09:37;12.50;1.00
4699;DHT22;33708;49.466;11.176;2023-04-25T07:12:03;12.40;1.00
4699;DHT22;33708;49.466;11.176;2023-04-25T07:14:29;12.40;1.00
4699;DHT22;33708;49.466;11.176;2023-04-25T07:16:54;12.70;1.00
4699;DHT22;33708;49.466;11.176;2023-04-25T07:19:22;12.80;1.00
4699;DHT22;33708;49.466;11.176;2023-04-25T07:21:52;12.40;1.00
4699;DHT22;33708;49.466;11.176;2023-04-25T07:24:17;13.90;1.00
4699;DHT22;33708;49.466;11.176;2023-04-25T07:26:43;14.10;1.00
4699;DHT22;33708;49.466;11.176;2023-04-25T07:29:09;13.80;1.00
4699;DHT22;33708;49.466;11.176;2023-04-25T07:31:34;13.10;1.00
4699;DHT22;33708;49.466;11.176;2023-04-25T07:34:00;12.20;1.00
4699;DHT22;33708;49.466;11.176;2023-04-25T07:36:26;11.60;1.00
4699;DHT22;33708;49.466;11.176;2023-04-25T07:38:52;10.60;1.00
4699;DHT22;33708;49.466;11.176;2023-04-25T07:41:18;10.10;1.00
4699;DHT22;33708;49.466;11.176;2023-04-25T07:43:43;10.20;1.00
4699;DHT22;33708;49.466;11.176;2023-04-25T07:46:09;9.90;1.00
4699;DHT22;33708;49.466;11.176;2023-04-25T07:48:34;9.60;1.00
4699;DHT22;33708;49.466;11.176;2023-04-25T07:51:00;9.80;1.00
4699;DHT22;33708;49.466;11.176;2023-04-25T07:53:25;9.50;1.00
4699;DHT22;33708;49.466;11.176;2023-04-25T07:55:51;9.30;1.00
4699;DHT22;33708;49.466;11.176;2023-04-25T07:58:17;9.40;1.00
4699;DHT22;33708;49.466;11.176;2023-04-25T08:00:46;9.60;1.00
4699;DHT22;33708;49.466;11.176;2023-04-25T08:03:12;9.80;1.00
4699;DHT22;33708;49.466;11.176;2023-04-25T08:05:38;10.20;1.00
4699;DHT22;33708;49.466;11.176;2023-04-25T08:08:03;10.60;1.00
4699;DHT22;33708;49.466;11.176;2023-04-25T08:10:32;10.90;1.00
4699;DHT22;33708;49.466;11.176;2023-04-25T08:12:58;11.20;1.00
4699;DHT22;33708;49.466;11.176;2023-04-25T08:15:23;11.30;1.00
4699;DHT22;33708;49.466;11.176;2023-04-25T08:17:49;11.60;1.00
4699;DHT22;33708;49.466;11.176;2023-04-25T08:20:14;11.20;1.00
4699;DHT22;33708;49.466;11.176;2023-04-25T08:22:40;10.80;1.00
4699;DHT22;33708;49.466;11.176;2023-04-25T08:25:06;10.50;1.00
4699;DHT22;33708;49.466;11.176;2023-04-25T08:27:31;11.20;1.00
4699;DHT22;33708;49.466;11.176;2023-04-25T08:29:57;11.10;1.00
4699;DHT22;33708;49.466;11.176;2023-04-25T08:32:24;11.40;1.00
4699;DHT22;33708;49.466;11.176;2023-04-25T08:34:49;11.60;1.00
4699;DHT22;33708;49.466;11.176;2023-04-25T08:37:16;12.00;1.00
4699;DHT22;33708;49.466;11.176;2023-04-25T08:39:44;12.20;1.00
4699;DHT22;33708;49.466;11.176;2023-04-25T08:42:12;12.60;1.00
4699;DHT22;33708;49.466;11.176;2023-04-25T08:44:37;12.90;1.00
4699;DHT22;33708;49.466;11.176;2023-04-25T08:47:04;13.20;1.00
4699;DHT22;33708;49.466;11.176;2023-04-25T08:49:34;13.80;1.00
4699;DHT22;33708;49.466;11.176;2023-04-25T08:52:02;14.50;1.00
4699;DHT22;33708;49.466;11.176;2023-04-25T08:54:31;16.60;1.00
4699;DHT22;33708;49.466;11.176;2023-04-25T08:56:57;17.20;1.00
4699;DHT22;33708;49.466;11.176;2023-04-25T08:59:27;18.40;1.00
4699;DHT22;33708;49.466;11.176;2023-04-25T09:01:53;18.60;1.00
4699;DHT22;33708;49.466;11.176;2023-04-25T09:04:19;19.40;1.00
4699;DHT22;33708;49.466;11.176;2023-04-25T09:06:46;19.30;1.00
4699;DHT22;33708;49.466;11.176;2023-04-25T09:09:11;18.50;1.00
4699;DHT22;33708;49.466;11.176;2023-04-25T09:11:38;17.50;1.00
4699;DHT22;33708;49.466;11.176;2023-04-25T09:14:17;17.10;1.00
4699;DHT22;33708;49.466;11.176;2023-04-25T09:19:32;16.60;1.00
4699;DHT22;33708;49.466;11.176;2023-04-25T09:22:00;17.00;1.00
4699;DHT22;33708;49.466;11.176;2023-04-25T09:24:44;16.90;1.00
4699;DHT22;33708;49.466;11.176;2023-04-25T09:27:12;16.00;1.00
4699;DHT22;33708;49.466;11.176;2023-04-25T09:29:39;15.80;1.00
4699;DHT22;33708;49.466;11.176;2023-04-25T09:32:18;16.40;1.00
4699;DHT22;33708;49.466;11.176;2023-04-25T09:34:47;17.70;1.00
4699;DHT22;33708;49.466;11.176;2023-04-25T09:39:50;19.90;1.00
4699;DHT22;33708;49.466;11.176;2023-04-25T09:42:17;19.80;1.00
4699;DHT22;33708;49.466;11.176;2023-04-25T09:44:46;20.40;1.00
4699;DHT22;33708;49.466;11.176;2023-04-25T09:47:14;18.70;1.00
4699;DHT22;33708;49.466;11.176;2023-04-25T09:49:43;19.10;1.00
4699;DHT22;33708;49.466;11.176;2023-04-25T09:52:14;17.40;1.00
4699;DHT22;33708;49.466;11.176;2023-04-25T09:54:40;17.90;1.00
4699;DHT22;33708;49.466;11.176;2023-04-25T09:57:14;17.50;1.00
4699;DHT22;33708;49.466;11.176;2023-04-25T09:59:44;17.20;1.00
4699;DHT22;33708;49.466;11.176;2023-04-25T10:02:10;15.70;1.00
4699;DHT22;33708;49.466;11.176;2023-04-25T10:04:37;16.60;1.00
4699;DHT22;33708;49.466;11.176;2023-04-25T10:07:05;16.50;1.00
4699;DHT22;33708;49.466;11.176;2023-04-25T10:09:32;16.70;1.00
4699;DHT22;33708;49.466;11.176;2023-04-25T10:12:01;16.80;3.00
4699;DHT22;33708;49.466;11.176;2023-04-25T10:14:30;17.50;1.00
4699;DHT22;33708;49.466;11.176;2023-04-25T10:16:57;17.40;19.70
4699;DHT22;33708;49.466;11.176;2023-04-25T10:19:24;17.30;19.30
4699;DHT22;33708;49.466;11.176;2023-04-25T10:22:03;17.40;26.40
4699;DHT22;33708;49.466;11.176;2023-04-25T10:24:30;16.90;10.50
4699;DHT22;33708;49.466;11.176;2023-04-25T10:26:57;16.80;7.10
4699;DHT22;33708;49.466;11.176;2023-04-25T10:29:25;17.10;23.90
4699;DHT22;33708;49.466;11.176;2023-04-25T10:31:51;16.50;89.20
4699;DHT22;33708;49.466;11.176;2023-04-25T10:34:18;16.60;99.90
4699;DHT22;33708;49.466;11.176;2023-04-25T10:36:49;16.40;99.90
4699;DHT22;33708;49.466;11.176;2023-04-25T10:39:22;16.80;1.00
4699;DHT22;33708;49.466;11.176;2023-04-25T10:41:56;15.70;1.00
4699;DHT22;33708;49.466;11.176;2023-04-25T10:44:22;16.20;1.00
4699;DHT22;33708;49.466;11.176;2023-04-25T10:46:47;15.30;1.00
4699;DHT22;33708;49.466;11.176;2023-04-25T10:49:49;16.20;1.00
4699;DHT22;33708;49.466;11.176;2023-04-25T10:52:25;15.70;1.00
4699;DHT22;33708;49.466;11.176;2023-04-25T10:54:55;14.80;1.00
4699;DHT22;33708;49.466;11.176;2023-04-25T10:57:37;14.60;27.90
4699;DHT22;33708;49.466;11.176;2023-04-25T11:00:09;14.30;99.90
4699;DHT22;33708;49.466;11.176;2023-04-25T11:02:58;14.40;1.00
4699;DHT22;33708;49.466;11.176;2023-04-25T11:05:35;14.70;1.00
4699;DHT22;33708;49.466;11.176;2023-04-25T11:08:02;15.60;1.00
4699;DHT22;33708;49.466;11.176;2023-04-25T11:10:32;16.30;99.90
4699;DHT22;33708;49.466;11.176;2023-04-25T11:13:00;16.20;99.90
4699;DHT22;33708;49.466;11.176;2023-04-25T11:15:27;15.90;99.90
4699;DHT22;33708;49.466;11.176;2023-04-25T11:17:53;16.20;99.90
4699;DHT22;33708;49.466;11.176;2023-04-25T11:20:19;16.60;99.90
4699;DHT22;33708;49.466;11.176;2023-04-25T11:22:46;15.30;1.00
4699;DHT22;33708;49.466;11.176;2023-04-25T11:25:13;15.60;1.00
4699;DHT22;33708;49.466;11.176;2023-04-25T11:27:50;15.60;23.30
4699;DHT22;33708;49.466;11.176;2023-04-25T11:30:17;15.60;1.00
4699;DHT22;33708;49.466;11.176;2023-04-25T11:32:42;15.10;99.90
4699;DHT22;33708;49.466;11.176;2023-04-25T11:35:09;15.60;1.00
4699;DHT22;33708;49.466;11.176;2023-04-25T11:37:35;15.70;1.00
4699;DHT22;33708;49.466;11.176;2023-04-25T11:40:02;15.20;1.00
4699;DHT22;33708;49.466;11.176;2023-04-25T11:42:28;14.90;1.00
4699;DHT22;33708;49.466;11.176;2023-04-25T11:44:54;14.20;1.00
4699;DHT22;33708;49.466;11.176;2023-04-25T11:47:19;13.60;1.00
4699;DHT22;33708;49.466;11.176;2023-04-25T11:49:45;13.30;1.00
4699;DHT22;33708;49.466;11.176;2023-04-25T11:52:11;13.80;1.00
4699;DHT22;33708;49.466;11.176;2023-04-25T11:54:37;13.70;1.00
4699;DHT22;33708;49.466;11.176;2023-04-25T11:57:03;13.90;1.00
4699;DHT22;33708;49.466;11.176;2023-04-25T11:59:29;13.60;1.00
4699;DHT22;33708;49.466;11.176;2023-04-25T12:01:55;14.40;1.00
4699;DHT22;33708;49.466;11.176;2023-04-25T12:04:24;14.60;1.00
4699;DHT22;33708;49.466;11.176;2023-04-25T12:06:52;14.70;1.00
4699;DHT22;33708;49.466;11.176;2023-04-25T12:09:31;15.00;1.00
4699;DHT22;33708;49.466;11.176;2023-04-25T12:11:58;14.20;1.00
4699;DHT22;33708;49.466;11.176;2023-04-25T12:14:25;14.90;1.00
4699;DHT22;33708;49.466;11.176;2023-04-25T12:16:52;15.10;1.00
4699;DHT22;33708;49.466;11.176;2023-04-25T12:19:19;15.40;1.00
4699;DHT22;33708;49.466;11.176;2023-04-25T12:21:46;15.50;1.00
4699;DHT22;33708;49.466;11.176;2023-04-25T12:27:01;14.70;1.00
4699;DHT22;33708;49.466;11.176;2023-04-25T12:29:29;13.90;1.00
4699;DHT22;33708;49.466;11.176;2023-04-25T12:31:56;14.80;1.00
4699;DHT22;33708;49.466;11.176;2023-04-25T12:34:22;14.90;1.00
4699;DHT22;33708;49.466;11.176;2023-04-25T12:36:50;14.50;1.00
4699;DHT22;33708;49.466;11.176;2023-04-25T12:39:23;14.70;1.00
4699;DHT22;33708;49.466;11.176;2023-04-25T12:41:52;15.10;1.00
4699;DHT22;33708;49.466;11.176;2023-04-25T12:44:19;16.00;1.00
4699;DHT22;33708;49.466;11.176;2023-04-25T12:46:45;16.50;1.00
4699;DHT22;33708;49.466;11.176;2023-04-25T12:49:10;16.20;1.00
4699;DHT22;33708;49.466;11.176;2023-04-25T12:51:37;15.40;1.00
4699;DHT22;33708;49.466;11.176;2023-04-25T12:54:04;14.80;1.00
4699;DHT22;33708;49.466;11.176;2023-04-25T12:56:30;14.10;1.00
4699;DHT22;33708;49.466;11.176;2023-04-25T12:58:56;14.00;1.00
4699;DHT22;33708;49.466;11.176;2023-04-25T13:01:23;14.10;1.00
4699;DHT22;33708;49.466;11.176;2023-04-25T13:03:48;13.60;1.00
4699;DHT22;33708;49.466;11.176;2023-04-25T13:06:15;13.90;1.00
4699;DHT22;33708;49.466;11.176;2023-04-25T13:08:41;13.80;1.00
4699;DHT22;33708;49.466;11.176;2023-04-25T13:11:07;13.80;1.00
4699;DHT22;33708;49.466;11.176;2023-04-25T13:13:33;14.50;1.00
4699;DHT22;33708;49.466;11.176;2023-04-25T13:16:01;14.80;1.00
4699;DHT22;33708;49.466;11.176;2023-04-25T13:18:27;14.20;1.00
4699;DHT22;33708;49.466;11.176;2023-04-25T13:20:53;14.60;1.00
4699;DHT22;33708;49.466;11.176;2023-04-25T13:23:19;15.20;1.00
4699;DHT22;33708;49.466;11.176;2023-04-25T13:25:46;15.50;1.00
4699;DHT22;33708;49.466;11.176;2023-04-25T13:28:12;15.50;1.00
4699;DHT22;33708;49.466;11.176;2023-04-25T13:30:39;15.50;1.00
4699;DHT22;33708;49.466;11.176;2023-04-25T13:33:04;14.90;1.00
4699;DHT22;33708;49.466;11.176;2023-04-25T13:35:32;13.80;1.00
4699;DHT22;33708;49.466;11.176;2023-04-25T13:37:58;14.00;1.00
4699;DHT22;33708;49.466;11.176;2023-04-25T13:40:24;13.50;1.00
4699;DHT22;33708;49.466;11.176;2023-04-25T13:42:50;12.80;1.00
4699;DHT22;33708;49.466;11.176;2023-04-25T13:45:16;12.80;1.00
4699;DHT22;33708;49.466;11.176;2023-04-25T13:47:42;13.10;1.00
4699;DHT22;33708;49.466;11.176;2023-04-25T13:50:07;13.30;1.00
4699;DHT22;33708;49.466;11.176;2023-04-25T13:52:33;12.90;1.00
4699;DHT22;33708;49.466;11.176;2023-04-25T13:54:59;13.40;1.00
4699;DHT22;33708;49.466;11.176;2023-04-25T13:57:26;13.50;1.00
4699;DHT22;33708;49.466;11.176;2023-04-25T13:59:51;13.60;1.00
4699;DHT22;33708;49.466;11.176;2023-04-25T14:02:19;13.30;1.00
4699;DHT22;33708;49.466;11.176;2023-04-25T14:04:44;13.40;1.00
4699;DHT22;33708;49.466;11.176;2023-04-25T14:07:10;13.40;1.00
4699;DHT22;33708;49.466;11.176;2023-04-25T14:09:36;13.40;1.00
4699;DHT22;33708;49.466;11.176;2023-04-25T14:12:02;12.50;1.00
4699;DHT22;33708;49.466;11.176;2023-04-25T14:14:28;12.50;1.00
4699;DHT22;33708;49.466;11.176;2023-04-25T14:16:53;12.60;1.00
4699;DHT22;33708;49.466;11.176;2023-04-25T14:19:20;13.00;1.00
4699;DHT22;33708;49.466;11.176;2023-04-25T14:21:46;13.60;1.00
4699;DHT22;33708;49.466;11.176;2023-04-25T14:24:12;13.90;1.00
4699;DHT22;33708;49.466;11.176;2023-04-25T14:26:39;14.00;1.00
4699;DHT22;33708;49.466;11.176;2023-04-25T14:29:05;13.90;1.00
4699;DHT22;33708;49.466;11.176;2023-04-25T14:31:32;13.80;1.00
4699;DHT22;33708;49.466;11.176;2023-04-25T14:33:58;13.40;1.00
4699;DHT22;33708;49.466;11.176;2023-04-25T14:36:24;12.60;1.00
4699;DHT22;33708;49.466;11.176;2023-04-25T14:38:49;12.30;1.00
4699;DHT22;33708;49.466;11.176;2023-04-25T14:41:15;12.40;1.00
4699;DHT22;33708;49.466;11.176;2023-04-25T14:43:40;12.40;1.00
4699;DHT22;33708;49.466;11.176;2023-04-25T14:46:06;12.50;1.00
4699;DHT22;33708;49.466;11.176;2023-04-25T14:48:33;12.10;1.00
4699;DHT22;33708;49.466;11.176;2023-04-25T14:50:59;12.30;1.00
4699;DHT22;33708;49.466;11.176;2023-04-25T14:53:28;12.30;1.00
4699;DHT22;33708;49.466;11.176;2023-04-25T14:55:53;12.00;1.00
4699;DHT22;33708;49.466;11.176;2023-04-25T14:58:19;12.40;1.00
4699;DHT22;33708;49.466;11.176;2023-04-25T15:00:45;12.10;1.00
4699;DHT22;33708;49.466;11.176;2023-04-25T15:03:11;12.50;1.00
4699;DHT22;33708;49.466;11.176;2023-04-25T15:05:38;12.40;1.00
4699;DHT22;33708;49.466;11.176;2023-04-25T15:08:04;12.70;1.00
4699;DHT22;33708;49.466;11.176;2023-04-25T15:10:30;12.50;1.00
4699;DHT22;33708;49.466;11.176;2023-04-25T15:12:55;12.60;1.00
4699;DHT22;33708;49.466;11.176;2023-04-25T15:15:21;12.70;1.00
4699;DHT22;33708;49.466;11.176;2023-04-25T15:17:48;12.70;1.00
4699;DHT22;33708;49.466;11.176;2023-04-25T15:20:13;12.90;1.00
4699;DHT22;33708;49.466;11.176;2023-04-25T15:22:41;12.90;1.00
4699;DHT22;33708;49.466;11.176;2023-04-25T15:25:08;13.10;1.00
4699;DHT22;33708;49.466;11.176;2023-04-25T15:27:38;13.20;1.00
4699;DHT22;33708;49.466;11.176;2023-04-25T15:30:10;13.00;1.00
4699;DHT22;33708;49.466;11.176;2023-04-25T15:32:36;13.10;1.00
4699;DHT22;33708;49.466;11.176;2023-04-25T15:35:04;13.20;1.00
4699;DHT22;33708;49.466;11.176;2023-04-25T15:37:31;13.10;1.00
4699;DHT22;33708;49.466;11.176;2023-04-25T15:40:06;13.20;1.00
4699;DHT22;33708;49.466;11.176;2023-04-25T15:42:40;13.10;1.00
4699;DHT22;33708;49.466;11.176;2023-04-25T15:45:08;13.10;1.00
4699;DHT22;33708;49.466;11.176;2023-04-25T15:47:34;12.90;1.00
4699;DHT22;33708;49.466;11.176;2023-04-25T15:50:01;12.10;1.00
4699;DHT22;33708;49.466;11.176;2023-04-25T15:52:27;12.30;1.00
4699;DHT22;33708;49.466;11.176;2023-04-25T15:54:53;12.20;1.00
4699;DHT22;33708;49.466;11.176;2023-04-25T15:57:19;12.60;1.00